sensor_id;sensor_type;location;lat;lon;timestamp;P1;durP1;ratioP1;P2;durP2;ratioP2
17239;SDS011;9943;54.378;18.604;2022-09-09T00:01:58;4.57;;;2.00;;
17239;SDS011;9943;54.378;18.604;2022-09-09T00:04:29;4.07;;;2.20;;
17239;SDS011;9943;54.378;18.604;2022-09-09T00:09:43;5.32;;;2.42;;
17239;SDS011;9943;54.378;18.604;2022-09-09T00:12:15;3.72;;;2.00;;
17239;SDS011;9943;54.378;18.604;2022-09-09T00:14:47;3.38;;;1.90;;
17239;SDS011;9943;54.378;18.604;2022-09-09T00:17:30;4.38;;;2.10;;
17239;SDS011;9943;54.378;18.604;2022-09-09T00:20:03;4.50;;;2.17;;
17239;SDS011;9943;54.378;18.604;2022-09-09T00:22:38;3.13;;;2.22;;
17239;SDS011;9943;54.378;18.604;2022-09-09T00:25:14;2.85;;;2.10;;
17239;SDS011;9943;54.378;18.604;2022-09-09T00:27:44;2.53;;;2.05;;
17239;SDS011;9943;54.378;18.604;2022-09-09T00:30:13;6.03;;;2.22;;
17239;SDS011;9943;54.378;18.604;2022-09-09T00:32:46;4.90;;;2.42;;
17239;SDS011;9943;54.378;18.604;2022-09-09T00:35:16;5.18;;;2.15;;
17239;SDS011;9943;54.378;18.604;2022-09-09T00:40:41;3.67;;;2.17;;
17239;SDS011;9943;54.378;18.604;2022-09-09T00:43:18;3.70;;;2.10;;
17239;SDS011;9943;54.378;18.604;2022-09-09T00:48:33;5.28;;;2.22;;
17239;SDS011;9943;54.378;18.604;2022-09-09T00:51:07;5.53;;;2.75;;
17239;SDS011;9943;54.378;18.604;2022-09-09T00:53:39;2.78;;;1.77;;
17239;SDS011;9943;54.378;18.604;2022-09-09T00:56:13;4.57;;;2.25;;
17239;SDS011;9943;54.378;18.604;2022-09-09T00:58:42;7.03;;;2.55;;
17239;SDS011;9943;54.378;18.604;2022-09-09T01:01:12;3.88;;;1.73;;
17239;SDS011;9943;54.378;18.604;2022-09-09T01:03:42;5.22;;;2.25;;
17239;SDS011;9943;54.378;18.604;2022-09-09T01:06:19;3.63;;;2.30;;
17239;SDS011;9943;54.378;18.604;2022-09-09T01:09:02;2.78;;;2.17;;
17239;SDS011;9943;54.378;18.604;2022-09-09T01:11:36;3.78;;;1.90;;
17239;SDS011;9943;54.378;18.604;2022-09-09T01:14:10;2.97;;;1.95;;
17239;SDS011;9943;54.378;18.604;2022-09-09T01:16:45;3.63;;;2.28;;
17239;SDS011;9943;54.378;18.604;2022-09-09T01:19:20;2.72;;;2.22;;
17239;SDS011;9943;54.378;18.604;2022-09-09T01:21:54;3.00;;;2.35;;
17239;SDS011;9943;54.378;18.604;2022-09-09T01:24:27;2.75;;;1.95;;
17239;SDS011;9943;54.378;18.604;2022-09-09T01:26:57;2.25;;;1.80;;
17239;SDS011;9943;54.378;18.604;2022-09-09T01:29:27;5.88;;;2.05;;
17239;SDS011;9943;54.378;18.604;2022-09-09T01:31:57;2.65;;;1.77;;
17239;SDS011;9943;54.378;18.604;2022-09-09T01:34:27;4.72;;;2.20;;
17239;SDS011;9943;54.378;18.604;2022-09-09T01:36:58;3.30;;;2.13;;
17239;SDS011;9943;54.378;18.604;2022-09-09T01:39:28;2.63;;;2.10;;
17239;SDS011;9943;54.378;18.604;2022-09-09T01:42:01;2.55;;;1.98;;
17239;SDS011;9943;54.378;18.604;2022-09-09T01:44:33;2.00;;;1.80;;
17239;SDS011;9943;54.378;18.604;2022-09-09T01:47:01;5.43;;;2.42;;
17239;SDS011;9943;54.378;18.604;2022-09-09T01:49:29;4.93;;;2.28;;
17239;SDS011;9943;54.378;18.604;2022-09-09T01:51:59;5.70;;;2.15;;
17239;SDS011;9943;54.378;18.604;2022-09-09T01:54:28;3.22;;;1.95;;
17239;SDS011;9943;54.378;18.604;2022-09-09T01:57:00;3.08;;;1.95;;
17239;SDS011;9943;54.378;18.604;2022-09-09T01:59:38;4.20;;;2.10;;
17239;SDS011;9943;54.378;18.604;2022-09-09T02:02:09;3.85;;;2.03;;
17239;SDS011;9943;54.378;18.604;2022-09-09T02:04:41;3.15;;;2.00;;
17239;SDS011;9943;54.378;18.604;2022-09-09T02:07:18;2.30;;;1.95;;
17239;SDS011;9943;54.378;18.604;2022-09-09T02:09:52;4.55;;;2.80;;
17239;SDS011;9943;54.378;18.604;2022-09-09T02:12:23;3.25;;;2.33;;
17239;SDS011;9943;54.378;18.604;2022-09-09T02:14:56;2.80;;;2.08;;
17239;SDS011;9943;54.378;18.604;2022-09-09T02:17:33;10.80;;;2.20;;
17239;SDS011;9943;54.378;18.604;2022-09-09T02:20:05;3.10;;;1.77;;
17239;SDS011;9943;54.378;18.604;2022-09-09T02:22:37;5.70;;;2.50;;
17239;SDS011;9943;54.378;18.604;2022-09-09T02:25:06;5.07;;;2.10;;
17239;SDS011;9943;54.378;18.604;2022-09-09T02:27:35;6.03;;;2.30;;
17239;SDS011;9943;54.378;18.604;2022-09-09T02:30:07;3.75;;;2.10;;
17239;SDS011;9943;54.378;18.604;2022-09-09T02:32:36;6.97;;;2.47;;
17239;SDS011;9943;54.378;18.604;2022-09-09T02:35:07;7.85;;;2.45;;
17239;SDS011;9943;54.378;18.604;2022-09-09T02:37:42;2.75;;;2.00;;
17239;SDS011;9943;54.378;18.604;2022-09-09T02:40:12;3.70;;;2.10;;
17239;SDS011;9943;54.378;18.604;2022-09-09T02:42:44;4.60;;;2.15;;
17239;SDS011;9943;54.378;18.604;2022-09-09T02:45:16;5.07;;;2.40;;
17239;SDS011;9943;54.378;18.604;2022-09-09T02:47:47;3.17;;;2.25;;
17239;SDS011;9943;54.378;18.604;2022-09-09T02:50:23;2.42;;;2.03;;
17239;SDS011;9943;54.378;18.604;2022-09-09T02:52:59;5.90;;;2.15;;
17239;SDS011;9943;54.378;18.604;2022-09-09T02:55:32;4.00;;;2.50;;
17239;SDS011;9943;54.378;18.604;2022-09-09T02:58:03;6.10;;;2.30;;
17239;SDS011;9943;54.378;18.604;2022-09-09T03:00:34;4.35;;;2.70;;
17239;SDS011;9943;54.378;18.604;2022-09-09T03:03:12;4.95;;;2.30;;
17239;SDS011;9943;54.378;18.604;2022-09-09T03:05:42;3.70;;;2.10;;
17239;SDS011;9943;54.378;18.604;2022-09-09T03:08:10;4.30;;;1.98;;
17239;SDS011;9943;54.378;18.604;2022-09-09T03:10:38;6.55;;;2.25;;
17239;SDS011;9943;54.378;18.604;2022-09-09T03:13:07;5.38;;;2.10;;
17239;SDS011;9943;54.378;18.604;2022-09-09T03:15:39;4.07;;;2.08;;
17239;SDS011;9943;54.378;18.604;2022-09-09T03:18:09;5.30;;;2.40;;
17239;SDS011;9943;54.378;18.604;2022-09-09T03:20:46;5.38;;;2.30;;
17239;SDS011;9943;54.378;18.604;2022-09-09T03:23:14;3.88;;;2.25;;
17239;SDS011;9943;54.378;18.604;2022-09-09T03:25:46;3.60;;;2.78;;
17239;SDS011;9943;54.378;18.604;2022-09-09T03:28:19;6.50;;;3.08;;
17239;SDS011;9943;54.378;18.604;2022-09-09T03:30:48;7.88;;;3.10;;
17239;SDS011;9943;54.378;18.604;2022-09-09T03:33:22;5.55;;;3.40;;
17239;SDS011;9943;54.378;18.604;2022-09-09T03:35:50;4.55;;;3.67;;
17239;SDS011;9943;54.378;18.604;2022-09-09T03:38:23;6.72;;;4.05;;
17239;SDS011;9943;54.378;18.604;2022-09-09T03:40:51;6.15;;;4.07;;
17239;SDS011;9943;54.378;18.604;2022-09-09T03:43:22;9.63;;;4.32;;
17239;SDS011;9943;54.378;18.604;2022-09-09T03:45:52;6.65;;;4.35;;
17239;SDS011;9943;54.378;18.604;2022-09-09T03:48:22;6.93;;;4.60;;
17239;SDS011;9943;54.378;18.604;2022-09-09T03:50:52;6.35;;;4.30;;
17239;SDS011;9943;54.378;18.604;2022-09-09T03:53:24;8.55;;;4.95;;
17239;SDS011;9943;54.378;18.604;2022-09-09T03:55:53;6.65;;;4.65;;
17239;SDS011;9943;54.378;18.604;2022-09-09T03:58:25;7.78;;;4.57;;
17239;SDS011;9943;54.378;18.604;2022-09-09T04:00:57;6.32;;;4.85;;
17239;SDS011;9943;54.378;18.604;2022-09-09T04:03:33;7.28;;;5.00;;
17239;SDS011;9943;54.378;18.604;2022-09-09T04:06:02;7.05;;;5.13;;
17239;SDS011;9943;54.378;18.604;2022-09-09T04:08:35;6.00;;;4.93;;
17239;SDS011;9943;54.378;18.604;2022-09-09T04:11:05;6.00;;;4.85;;
17239;SDS011;9943;54.378;18.604;2022-09-09T04:13:36;8.77;;;5.38;;
17239;SDS011;9943;54.378;18.604;2022-09-09T04:16:09;7.38;;;5.32;;
17239;SDS011;9943;54.378;18.604;2022-09-09T04:18:39;7.00;;;4.93;;
17239;SDS011;9943;54.378;18.604;2022-09-09T04:21:10;11.02;;;5.32;;
17239;SDS011;9943;54.378;18.604;2022-09-09T04:23:39;4.88;;;4.38;;
17239;SDS011;9943;54.378;18.604;2022-09-09T04:26:07;10.20;;;5.38;;
17239;SDS011;9943;54.378;18.604;2022-09-09T04:28:35;7.90;;;5.57;;
17239;SDS011;9943;54.378;18.604;2022-09-09T04:31:09;11.98;;;5.40;;
17239;SDS011;9943;54.378;18.604;2022-09-09T04:33:40;7.68;;;5.00;;
17239;SDS011;9943;54.378;18.604;2022-09-09T04:36:08;6.60;;;4.70;;
17239;SDS011;9943;54.378;18.604;2022-09-09T04:38:37;8.75;;;5.93;;
17239;SDS011;9943;54.378;18.604;2022-09-09T04:41:11;8.18;;;5.95;;
17239;SDS011;9943;54.378;18.604;2022-09-09T04:43:40;6.97;;;5.45;;
17239;SDS011;9943;54.378;18.604;2022-09-09T04:46:09;8.10;;;5.03;;
17239;SDS011;9943;54.378;18.604;2022-09-09T04:48:37;8.50;;;5.07;;
17239;SDS011;9943;54.378;18.604;2022-09-09T04:51:11;10.63;;;5.25;;
17239;SDS011;9943;54.378;18.604;2022-09-09T04:53:41;12.65;;;5.90;;
17239;SDS011;9943;54.378;18.604;2022-09-09T04:56:09;7.20;;;5.38;;
17239;SDS011;9943;54.378;18.604;2022-09-09T04:58:38;7.55;;;5.80;;
17239;SDS011;9943;54.378;18.604;2022-09-09T05:01:10;7.45;;;5.70;;
17239;SDS011;9943;54.378;18.604;2022-09-09T05:03:40;7.38;;;5.68;;
17239;SDS011;9943;54.378;18.604;2022-09-09T05:06:08;9.52;;;5.88;;
17239;SDS011;9943;54.378;18.604;2022-09-09T05:08:40;9.50;;;6.13;;
17239;SDS011;9943;54.378;18.604;2022-09-09T05:11:15;8.32;;;5.40;;
17239;SDS011;9943;54.378;18.604;2022-09-09T05:16:47;6.57;;;5.30;;
17239;SDS011;9943;54.378;18.604;2022-09-09T05:19:17;7.40;;;5.30;;
17239;SDS011;9943;54.378;18.604;2022-09-09T05:21:52;7.85;;;5.30;;
17239;SDS011;9943;54.378;18.604;2022-09-09T05:24:22;8.48;;;5.70;;
17239;SDS011;9943;54.378;18.604;2022-09-09T05:26:50;7.78;;;6.13;;
17239;SDS011;9943;54.378;18.604;2022-09-09T05:29:18;6.88;;;5.82;;
17239;SDS011;9943;54.378;18.604;2022-09-09T05:31:51;8.85;;;5.95;;
17239;SDS011;9943;54.378;18.604;2022-09-09T05:34:22;9.43;;;5.95;;
17239;SDS011;9943;54.378;18.604;2022-09-09T05:36:52;7.57;;;5.30;;
17239;SDS011;9943;54.378;18.604;2022-09-09T05:39:24;6.53;;;5.30;;
17239;SDS011;9943;54.378;18.604;2022-09-09T05:41:54;8.68;;;5.70;;
17239;SDS011;9943;54.378;18.604;2022-09-09T05:44:22;16.00;;;6.75;;
17239;SDS011;9943;54.378;18.604;2022-09-09T05:46:59;6.57;;;5.13;;
17239;SDS011;9943;54.378;18.604;2022-09-09T05:49:30;7.32;;;4.95;;
17239;SDS011;9943;54.378;18.604;2022-09-09T05:51:58;7.15;;;4.75;;
17239;SDS011;9943;54.378;18.604;2022-09-09T05:54:25;5.28;;;4.25;;
17239;SDS011;9943;54.378;18.604;2022-09-09T05:56:53;8.18;;;4.30;;
17239;SDS011;9943;54.378;18.604;2022-09-09T05:59:21;4.30;;;3.90;;
17239;SDS011;9943;54.378;18.604;2022-09-09T06:01:50;4.43;;;4.03;;
17239;SDS011;9943;54.378;18.604;2022-09-09T06:04:19;5.18;;;4.25;;
17239;SDS011;9943;54.378;18.604;2022-09-09T06:06:47;5.57;;;4.38;;
17239;SDS011;9943;54.378;18.604;2022-09-09T06:09:15;5.85;;;3.85;;
17239;SDS011;9943;54.378;18.604;2022-09-09T06:11:43;7.43;;;3.70;;
17239;SDS011;9943;54.378;18.604;2022-09-09T06:14:11;5.72;;;4.22;;
17239;SDS011;9943;54.378;18.604;2022-09-09T06:16:40;6.40;;;4.05;;
17239;SDS011;9943;54.378;18.604;2022-09-09T06:19:09;9.48;;;4.85;;
17239;SDS011;9943;54.378;18.604;2022-09-09T06:21:44;6.95;;;4.20;;
17239;SDS011;9943;54.378;18.604;2022-09-09T06:24:13;5.47;;;4.22;;
17239;SDS011;9943;54.378;18.604;2022-09-09T06:26:42;4.22;;;3.75;;
17239;SDS011;9943;54.378;18.604;2022-09-09T06:29:11;8.48;;;5.63;;
17239;SDS011;9943;54.378;18.604;2022-09-09T06:31:40;7.50;;;3.50;;
17239;SDS011;9943;54.378;18.604;2022-09-09T06:34:11;4.00;;;3.38;;
17239;SDS011;9943;54.378;18.604;2022-09-09T06:36:45;3.55;;;3.25;;
17239;SDS011;9943;54.378;18.604;2022-09-09T06:39:12;5.93;;;4.60;;
17239;SDS011;9943;54.378;18.604;2022-09-09T06:41:41;6.32;;;3.58;;
17239;SDS011;9943;54.378;18.604;2022-09-09T06:44:12;6.20;;;3.20;;
17239;SDS011;9943;54.378;18.604;2022-09-09T06:46:41;5.25;;;3.20;;
17239;SDS011;9943;54.378;18.604;2022-09-09T06:49:15;4.25;;;3.53;;
17239;SDS011;9943;54.378;18.604;2022-09-09T06:51:42;5.47;;;3.45;;
17239;SDS011;9943;54.378;18.604;2022-09-09T06:54:15;5.25;;;3.20;;
17239;SDS011;9943;54.378;18.604;2022-09-09T06:56:49;3.55;;;3.25;;
17239;SDS011;9943;54.378;18.604;2022-09-09T06:59:17;5.43;;;3.28;;
17239;SDS011;9943;54.378;18.604;2022-09-09T07:01:45;6.63;;;3.65;;
17239;SDS011;9943;54.378;18.604;2022-09-09T07:04:17;5.45;;;3.17;;
17239;SDS011;9943;54.378;18.604;2022-09-09T07:06:46;3.92;;;3.42;;
17239;SDS011;9943;54.378;18.604;2022-09-09T07:09:14;4.32;;;3.70;;
17239;SDS011;9943;54.378;18.604;2022-09-09T07:11:47;5.28;;;3.22;;
17239;SDS011;9943;54.378;18.604;2022-09-09T07:14:19;4.45;;;3.13;;
17239;SDS011;9943;54.378;18.604;2022-09-09T07:16:47;7.00;;;3.60;;
17239;SDS011;9943;54.378;18.604;2022-09-09T07:19:19;6.05;;;3.63;;
17239;SDS011;9943;54.378;18.604;2022-09-09T07:21:55;5.60;;;3.38;;
17239;SDS011;9943;54.378;18.604;2022-09-09T07:24:22;4.30;;;3.40;;
17239;SDS011;9943;54.378;18.604;2022-09-09T07:26:57;6.82;;;3.80;;
17239;SDS011;9943;54.378;18.604;2022-09-09T07:29:28;3.80;;;3.38;;
17239;SDS011;9943;54.378;18.604;2022-09-09T07:32:05;5.65;;;3.47;;
17239;SDS011;9943;54.378;18.604;2022-09-09T07:37:30;5.88;;;3.90;;
17239;SDS011;9943;54.378;18.604;2022-09-09T07:44:03;6.63;;;3.30;;
17239;SDS011;9943;54.378;18.604;2022-09-09T07:46:39;6.78;;;3.58;;
17239;SDS011;9943;54.378;18.604;2022-09-09T07:49:15;4.35;;;3.42;;
17239;SDS011;9943;54.378;18.604;2022-09-09T07:52:17;7.57;;;3.42;;
17239;SDS011;9943;54.378;18.604;2022-09-09T07:54:49;6.07;;;4.05;;
17239;SDS011;9943;54.378;18.604;2022-09-09T07:57:18;5.50;;;4.18;;
17239;SDS011;9943;54.378;18.604;2022-09-09T07:59:47;4.53;;;3.90;;
17239;SDS011;9943;54.378;18.604;2022-09-09T08:02:18;6.07;;;4.13;;
17239;SDS011;9943;54.378;18.604;2022-09-09T08:04:49;5.13;;;4.00;;
17239;SDS011;9943;54.378;18.604;2022-09-09T08:07:17;6.00;;;3.97;;
17239;SDS011;9943;54.378;18.604;2022-09-09T08:09:53;7.88;;;4.10;;
17239;SDS011;9943;54.378;18.604;2022-09-09T08:12:28;6.45;;;4.38;;
17239;SDS011;9943;54.378;18.604;2022-09-09T08:17:52;5.03;;;3.75;;
17239;SDS011;9943;54.378;18.604;2022-09-09T08:20:21;5.05;;;3.83;;
17239;SDS011;9943;54.378;18.604;2022-09-09T08:22:49;6.70;;;3.60;;
17239;SDS011;9943;54.378;18.604;2022-09-09T08:26:12;5.60;;;3.83;;
17239;SDS011;9943;54.378;18.604;2022-09-09T08:28:54;5.70;;;3.58;;
17239;SDS011;9943;54.378;18.604;2022-09-09T08:31:28;4.88;;;3.75;;
17239;SDS011;9943;54.378;18.604;2022-09-09T08:34:00;5.60;;;4.25;;
17239;SDS011;9943;54.378;18.604;2022-09-09T08:36:31;6.53;;;4.05;;
17239;SDS011;9943;54.378;18.604;2022-09-09T08:39:00;6.50;;;4.07;;
17239;SDS011;9943;54.378;18.604;2022-09-09T08:41:42;4.50;;;3.67;;
17239;SDS011;9943;54.378;18.604;2022-09-09T08:44:41;7.38;;;3.95;;
17239;SDS011;9943;54.378;18.604;2022-09-09T08:47:33;6.07;;;4.20;;
17239;SDS011;9943;54.378;18.604;2022-09-09T08:50:17;6.13;;;4.28;;
17239;SDS011;9943;54.378;18.604;2022-09-09T08:52:53;5.80;;;3.78;;
17239;SDS011;9943;54.378;18.604;2022-09-09T08:55:36;7.30;;;4.35;;
17239;SDS011;9943;54.378;18.604;2022-09-09T08:58:39;5.22;;;4.72;;
17239;SDS011;9943;54.378;18.604;2022-09-09T09:04:14;6.07;;;4.07;;
17239;SDS011;9943;54.378;18.604;2022-09-09T09:07:08;5.55;;;3.92;;
17239;SDS011;9943;54.378;18.604;2022-09-09T09:10:01;6.38;;;4.18;;
17239;SDS011;9943;54.378;18.604;2022-09-09T09:12:41;5.50;;;4.20;;
17239;SDS011;9943;54.378;18.604;2022-09-09T09:15:17;4.40;;;3.88;;
17239;SDS011;9943;54.378;18.604;2022-09-09T09:17:49;5.50;;;4.38;;
17239;SDS011;9943;54.378;18.604;2022-09-09T09:20:26;4.63;;;3.90;;
17239;SDS011;9943;54.378;18.604;2022-09-09T09:23:02;6.47;;;4.82;;
17239;SDS011;9943;54.378;18.604;2022-09-09T09:26:00;4.93;;;4.35;;
17239;SDS011;9943;54.378;18.604;2022-09-09T09:28:30;5.80;;;4.40;;
17239;SDS011;9943;54.378;18.604;2022-09-09T09:33:56;5.22;;;4.40;;
17239;SDS011;9943;54.378;18.604;2022-09-09T09:36:39;8.32;;;6.45;;
17239;SDS011;9943;54.378;18.604;2022-09-09T09:40:09;5.70;;;5.10;;
17239;SDS011;9943;54.378;18.604;2022-09-09T09:42:56;5.43;;;4.93;;
17239;SDS011;9943;54.378;18.604;2022-09-09T09:45:41;5.75;;;4.60;;
17239;SDS011;9943;54.378;18.604;2022-09-09T09:48:14;5.00;;;4.25;;
17239;SDS011;9943;54.378;18.604;2022-09-09T09:50:48;5.05;;;4.55;;
17239;SDS011;9943;54.378;18.604;2022-09-09T09:53:24;8.50;;;5.90;;
17239;SDS011;9943;54.378;18.604;2022-09-09T09:55:56;5.32;;;4.82;;
17239;SDS011;9943;54.378;18.604;2022-09-09T09:58:25;5.38;;;4.88;;
17239;SDS011;9943;54.378;18.604;2022-09-09T10:01:01;5.20;;;4.70;;
17239;SDS011;9943;54.378;18.604;2022-09-09T10:03:35;7.20;;;6.38;;
17239;SDS011;9943;54.378;18.604;2022-09-09T10:06:06;11.63;;;8.68;;
17239;SDS011;9943;54.378;18.604;2022-09-09T10:08:44;8.07;;;6.70;;
17239;SDS011;9943;54.378;18.604;2022-09-09T10:11:21;54.95;;;44.85;;
17239;SDS011;9943;54.378;18.604;2022-09-09T10:14:04;7.18;;;6.47;;
17239;SDS011;9943;54.378;18.604;2022-09-09T10:16:46;6.63;;;5.82;;
17239;SDS011;9943;54.378;18.604;2022-09-09T10:19:35;6.60;;;4.78;;
17239;SDS011;9943;54.378;18.604;2022-09-09T10:22:10;6.30;;;5.70;;
17239;SDS011;9943;54.378;18.604;2022-09-09T10:28:14;10.73;;;6.20;;
17239;SDS011;9943;54.378;18.604;2022-09-09T10:31:01;10.35;;;7.40;;
17239;SDS011;9943;54.378;18.604;2022-09-09T10:33:48;7.32;;;5.60;;
17239;SDS011;9943;54.378;18.604;2022-09-09T10:36:28;8.23;;;7.43;;
17239;SDS011;9943;54.378;18.604;2022-09-09T10:47:58;6.30;;;5.57;;
17239;SDS011;9943;54.378;18.604;2022-09-09T10:50:54;6.75;;;5.53;;
17239;SDS011;9943;54.378;18.604;2022-09-09T10:56:36;6.63;;;5.60;;
17239;SDS011;9943;54.378;18.604;2022-09-09T10:59:09;6.80;;;6.03;;
17239;SDS011;9943;54.378;18.604;2022-09-09T11:01:41;11.05;;;6.78;;
17239;SDS011;9943;54.378;18.604;2022-09-09T11:04:15;12.40;;;5.90;;
17239;SDS011;9943;54.378;18.604;2022-09-09T11:06:52;10.10;;;6.55;;
17239;SDS011;9943;54.378;18.604;2022-09-09T11:09:32;9.65;;;7.68;;
17239;SDS011;9943;54.378;18.604;2022-09-09T11:12:10;9.18;;;7.80;;
17239;SDS011;9943;54.378;18.604;2022-09-09T11:14:53;7.85;;;6.13;;
17239;SDS011;9943;54.378;18.604;2022-09-09T11:17:39;6.93;;;6.20;;
17239;SDS011;9943;54.378;18.604;2022-09-09T11:20:19;7.13;;;6.43;;
17239;SDS011;9943;54.378;18.604;2022-09-09T11:23:09;9.70;;;6.15;;
17239;SDS011;9943;54.378;18.604;2022-09-09T11:28:35;9.77;;;5.75;;
17239;SDS011;9943;54.378;18.604;2022-09-09T11:31:21;8.43;;;6.72;;
17239;SDS011;9943;54.378;18.604;2022-09-09T11:34:26;7.50;;;6.38;;
17239;SDS011;9943;54.378;18.604;2022-09-09T11:40:31;7.78;;;6.53;;
17239;SDS011;9943;54.378;18.604;2022-09-09T11:43:10;8.48;;;6.28;;
17239;SDS011;9943;54.378;18.604;2022-09-09T11:45:51;7.93;;;6.88;;
17239;SDS011;9943;54.378;18.604;2022-09-09T11:48:26;8.05;;;7.20;;
17239;SDS011;9943;54.378;18.604;2022-09-09T11:51:03;7.97;;;7.03;;
17239;SDS011;9943;54.378;18.604;2022-09-09T11:53:34;7.82;;;6.53;;
17239;SDS011;9943;54.378;18.604;2022-09-09T11:56:23;7.35;;;6.65;;
17239;SDS011;9943;54.378;18.604;2022-09-09T11:58:58;7.22;;;6.00;;
17239;SDS011;9943;54.378;18.604;2022-09-09T12:01:38;7.60;;;6.85;;
17239;SDS011;9943;54.378;18.604;2022-09-09T12:04:17;7.57;;;6.38;;
17239;SDS011;9943;54.378;18.604;2022-09-09T12:06:57;7.57;;;6.88;;
17239;SDS011;9943;54.378;18.604;2022-09-09T12:09:32;7.65;;;6.82;;
17239;SDS011;9943;54.378;18.604;2022-09-09T12:12:25;9.73;;;7.07;;
17239;SDS011;9943;54.378;18.604;2022-09-09T12:18:40;10.90;;;6.65;;
17239;SDS011;9943;54.378;18.604;2022-09-09T12:21:14;9.63;;;6.93;;
17239;SDS011;9943;54.378;18.604;2022-09-09T12:23:53;8.77;;;7.63;;
17239;SDS011;9943;54.378;18.604;2022-09-09T12:27:06;9.43;;;7.03;;
17239;SDS011;9943;54.378;18.604;2022-09-09T12:29:43;10.23;;;7.03;;
17239;SDS011;9943;54.378;18.604;2022-09-09T12:33:12;10.52;;;7.35;;
17239;SDS011;9943;54.378;18.604;2022-09-09T12:35:49;8.32;;;7.05;;
17239;SDS011;9943;54.378;18.604;2022-09-09T12:38:25;10.20;;;7.20;;
17239;SDS011;9943;54.378;18.604;2022-09-09T12:40:58;7.85;;;6.90;;
17239;SDS011;9943;54.378;18.604;2022-09-09T12:43:27;10.30;;;8.25;;
17239;SDS011;9943;54.378;18.604;2022-09-09T12:45:56;8.40;;;7.53;;
17239;SDS011;9943;54.378;18.604;2022-09-09T12:48:40;9.25;;;7.65;;
17239;SDS011;9943;54.378;18.604;2022-09-09T12:51:18;9.50;;;7.53;;
17239;SDS011;9943;54.378;18.604;2022-09-09T12:53:52;8.68;;;7.53;;
17239;SDS011;9943;54.378;18.604;2022-09-09T12:56:23;8.68;;;7.78;;
17239;SDS011;9943;54.378;18.604;2022-09-09T12:59:01;10.52;;;8.40;;
17239;SDS011;9943;54.378;18.604;2022-09-09T13:01:30;8.95;;;7.95;;
17239;SDS011;9943;54.378;18.604;2022-09-09T13:04:02;9.63;;;8.18;;
17239;SDS011;9943;54.378;18.604;2022-09-09T13:09:55;8.93;;;8.02;;
17239;SDS011;9943;54.378;18.604;2022-09-09T13:12:23;8.70;;;7.90;;
17239;SDS011;9943;54.378;18.604;2022-09-09T13:14:53;8.98;;;8.00;;
17239;SDS011;9943;54.378;18.604;2022-09-09T13:20:19;11.27;;;9.23;;
17239;SDS011;9943;54.378;18.604;2022-09-09T13:22:48;9.18;;;8.27;;
17239;SDS011;9943;54.378;18.604;2022-09-09T13:29:14;11.35;;;8.23;;
17239;SDS011;9943;54.378;18.604;2022-09-09T13:32:03;9.55;;;7.93;;
17239;SDS011;9943;54.378;18.604;2022-09-09T13:34:38;9.00;;;7.85;;
17239;SDS011;9943;54.378;18.604;2022-09-09T13:37:29;9.65;;;8.40;;
17239;SDS011;9943;54.378;18.604;2022-09-09T13:40:02;10.15;;;9.15;;
17239;SDS011;9943;54.378;18.604;2022-09-09T13:46:04;9.38;;;8.23;;
17239;SDS011;9943;54.378;18.604;2022-09-09T13:48:55;9.63;;;8.63;;
17239;SDS011;9943;54.378;18.604;2022-09-09T13:51:35;10.57;;;9.10;;
17239;SDS011;9943;54.378;18.604;2022-09-09T13:54:21;10.13;;;9.07;;
17239;SDS011;9943;54.378;18.604;2022-09-09T13:57:14;11.32;;;9.93;;
17239;SDS011;9943;54.378;18.604;2022-09-09T13:59:53;11.50;;;10.02;;
17239;SDS011;9943;54.378;18.604;2022-09-09T14:05:53;11.50;;;10.35;;
17239;SDS011;9943;54.378;18.604;2022-09-09T14:08:37;11.30;;;10.25;;
17239;SDS011;9943;54.378;18.604;2022-09-09T14:11:12;14.20;;;10.98;;
17239;SDS011;9943;54.378;18.604;2022-09-09T14:14:19;12.82;;;10.85;;
17239;SDS011;9943;54.378;18.604;2022-09-09T14:16:55;16.02;;;10.90;;
17239;SDS011;9943;54.378;18.604;2022-09-09T14:19:36;15.15;;;12.35;;
17239;SDS011;9943;54.378;18.604;2022-09-09T14:22:26;12.05;;;10.80;;
17239;SDS011;9943;54.378;18.604;2022-09-09T14:25:14;13.30;;;11.07;;
17239;SDS011;9943;54.378;18.604;2022-09-09T14:28:36;13.98;;;11.38;;
17239;SDS011;9943;54.378;18.604;2022-09-09T14:31:11;13.35;;;10.63;;
17239;SDS011;9943;54.378;18.604;2022-09-09T14:33:57;14.70;;;12.32;;
17239;SDS011;9943;54.378;18.604;2022-09-09T14:36:41;17.60;;;11.77;;
17239;SDS011;9943;54.378;18.604;2022-09-09T14:39:29;15.60;;;12.90;;
17239;SDS011;9943;54.378;18.604;2022-09-09T14:42:02;15.98;;;11.27;;
17239;SDS011;9943;54.378;18.604;2022-09-09T14:44:43;14.13;;;12.52;;
17239;SDS011;9943;54.378;18.604;2022-09-09T14:47:16;17.08;;;12.00;;
17239;SDS011;9943;54.378;18.604;2022-09-09T14:49:51;16.88;;;13.80;;
17239;SDS011;9943;54.378;18.604;2022-09-09T14:52:25;15.10;;;13.10;;
17239;SDS011;9943;54.378;18.604;2022-09-09T14:55:08;18.83;;;13.60;;
17239;SDS011;9943;54.378;18.604;2022-09-09T14:57:39;15.75;;;13.40;;
17239;SDS011;9943;54.378;18.604;2022-09-09T15:01:02;20.02;;;14.63;;
17239;SDS011;9943;54.378;18.604;2022-09-09T15:04:02;18.52;;;14.25;;
17239;SDS011;9943;54.378;18.604;2022-09-09T15:06:36;18.50;;;14.77;;
17239;SDS011;9943;54.378;18.604;2022-09-09T15:09:08;17.77;;;14.07;;
17239;SDS011;9943;54.378;18.604;2022-09-09T15:11:46;19.45;;;13.75;;
17239;SDS011;9943;54.378;18.604;2022-09-09T15:14:19;16.23;;;13.48;;
17239;SDS011;9943;54.378;18.604;2022-09-09T15:16:50;17.13;;;13.68;;
17239;SDS011;9943;54.378;18.604;2022-09-09T15:19:25;19.30;;;14.02;;
17239;SDS011;9943;54.378;18.604;2022-09-09T15:22:03;19.55;;;14.23;;
17239;SDS011;9943;54.378;18.604;2022-09-09T15:24:35;17.17;;;13.32;;
17239;SDS011;9943;54.378;18.604;2022-09-09T15:27:09;18.75;;;14.07;;
17239;SDS011;9943;54.378;18.604;2022-09-09T15:29:44;17.10;;;13.25;;
17239;SDS011;9943;54.378;18.604;2022-09-09T15:32:21;19.17;;;13.30;;
17239;SDS011;9943;54.378;18.604;2022-09-09T15:38:28;21.08;;;14.40;;
17239;SDS011;9943;54.378;18.604;2022-09-09T15:41:04;21.15;;;15.48;;
17239;SDS011;9943;54.378;18.604;2022-09-09T15:43:55;19.10;;;14.65;;
17239;SDS011;9943;54.378;18.604;2022-09-09T15:47:05;22.10;;;17.02;;
17239;SDS011;9943;54.378;18.604;2022-09-09T15:49:36;18.33;;;15.73;;
17239;SDS011;9943;54.378;18.604;2022-09-09T15:52:11;20.48;;;16.30;;
17239;SDS011;9943;54.378;18.604;2022-09-09T15:54:47;22.08;;;16.35;;
17239;SDS011;9943;54.378;18.604;2022-09-09T15:57:31;19.35;;;15.93;;
17239;SDS011;9943;54.378;18.604;2022-09-09T16:02:51;20.50;;;15.40;;
17239;SDS011;9943;54.378;18.604;2022-09-09T16:05:20;22.75;;;15.68;;
17239;SDS011;9943;54.378;18.604;2022-09-09T16:07:52;19.73;;;15.75;;
17239;SDS011;9943;54.378;18.604;2022-09-09T16:10:22;21.38;;;16.55;;
17239;SDS011;9943;54.378;18.604;2022-09-09T16:12:55;19.42;;;15.18;;
17239;SDS011;9943;54.378;18.604;2022-09-09T16:15:27;19.45;;;15.65;;
17239;SDS011;9943;54.378;18.604;2022-09-09T16:17:57;20.63;;;16.58;;
17239;SDS011;9943;54.378;18.604;2022-09-09T16:20:27;21.42;;;16.98;;
17239;SDS011;9943;54.378;18.604;2022-09-09T16:23:06;21.98;;;17.35;;
17239;SDS011;9943;54.378;18.604;2022-09-09T16:28:44;23.42;;;17.38;;
17239;SDS011;9943;54.378;18.604;2022-09-09T16:31:54;21.75;;;17.08;;
17239;SDS011;9943;54.378;18.604;2022-09-09T16:34:45;24.38;;;17.40;;
17239;SDS011;9943;54.378;18.604;2022-09-09T16:45:25;23.02;;;17.52;;
17239;SDS011;9943;54.378;18.604;2022-09-09T16:48:13;23.05;;;18.13;;
17239;SDS011;9943;54.378;18.604;2022-09-09T16:50:44;25.05;;;18.15;;
17239;SDS011;9943;54.378;18.604;2022-09-09T16:53:28;25.45;;;18.92;;
17239;SDS011;9943;54.378;18.604;2022-09-09T16:55:58;26.23;;;18.75;;
17239;SDS011;9943;54.378;18.604;2022-09-09T16:58:55;26.85;;;19.23;;
17239;SDS011;9943;54.378;18.604;2022-09-09T17:02:00;28.45;;;19.27;;